Time;durP1;ratioP1;P1;durP2;ratioP2;P2;SDS_P1;SDS_P2;PMS_P1;PMS_P2;Temp;Humidity;BMP_temperature;BMP_pressure;BME280_temperature;BME280_humidity;BME280_pressure;Samples;Min_cycle;Max_cycle;Signal;HPM_P1;HPM_P2
2021/12/26 00:01:05;;;;;;;5.22;4.05;;;;;;;-3.60;79.02;100657.16;5109082;28;20032;-86
2021/12/26 00:03:33;;;;;;;6.85;4.00;;;;;;;-3.65;78.79;100657.13;5110727;28;20481;-86
2021/12/26 00:06:04;;;;;;;8.60;4.53;;;;;;;-3.66;78.82;100662.34;5108344;28;20047;-86
2021/12/26 00:08:30;;;;;;;5.40;3.75;;;;;;;-3.77;78.88;100644.09;5110703;28;20027;-85
2021/12/26 00:10:55;;;;;;;5.88;3.80;;;;;;;-3.80;79.13;100641.50;5109572;28;20477;-86
2021/12/26 00:13:21;;;;;;;5.47;3.65;;;;;;;-3.78;79.50;100650.16;5110390;28;20801;-86
2021/12/26 00:15:47;;;;;;;7.65;4.70;;;;;;;-3.82;79.56;100651.88;5106841;27;20081;-86
2021/12/26 00:18:13;;;;;;;8.88;4.65;;;;;;;-3.83;79.25;100651.88;5108397;28;20042;-86
2021/12/26 00:20:39;;;;;;;7.35;4.55;;;;;;;-3.82;79.61;100653.59;5109705;28;20027;-86
2021/12/26 00:23:06;;;;;;;11.52;5.63;;;;;;;-3.85;79.25;100635.38;5109740;27;20023;-86
2021/12/26 00:25:32;;;;;;;6.90;4.57;;;;;;;-3.80;80.14;100638.91;5107212;28;20064;-86
2021/12/26 00:27:58;;;;;;;9.13;4.03;;;;;;;-3.85;79.44;100633.63;5109343;28;20035;-86
2021/12/26 00:30:23;;;;;;;7.82;4.38;;;;;;;-3.93;79.25;100624.97;5108469;28;20024;-86
2021/12/26 00:32:49;;;;;;;7.55;4.68;;;;;;;-3.85;79.74;100632.78;5108681;28;20031;-86
2021/12/26 00:35:16;;;;;;;6.55;4.05;;;;;;;-3.87;79.88;100631.91;5104769;28;20115;-86
2021/12/26 00:37:43;;;;;;;6.90;4.25;;;;;;;-3.89;80.41;100624.09;5089366;28;20473;-86
2021/12/26 00:40:10;;;;;;;8.57;4.28;;;;;;;-3.92;80.17;100629.31;5089099;28;20385;-86
2021/12/26 00:42:35;;;;;;;5.95;4.00;;;;;;;-3.99;80.40;100624.94;5089705;28;20460;-86
2021/12/26 00:45:02;;;;;;;7.10;4.22;;;;;;;-3.94;80.30;100646.59;5099247;28;20072;-86
2021/12/26 00:47:29;;;;;;;6.72;4.07;;;;;;;-3.97;80.76;100643.13;5100773;28;20031;-86
2021/12/26 00:49:59;;;;;;;6.38;3.80;;;;;;;-3.98;80.82;100636.19;5107494;27;20366;-86
2021/12/26 00:52:24;;;;;;;8.48;3.85;;;;;;;-4.02;80.37;100635.28;5105947;27;20077;-86
2021/12/26 00:54:49;;;;;;;6.97;4.43;;;;;;;-4.01;80.79;100644.84;5089057;28;20028;-86
2021/12/26 00:57:15;;;;;;;6.47;4.32;;;;;;;-4.03;81.26;100637.03;5105701;28;20051;-86
2021/12/26 00:59:40;;;;;;;8.43;4.35;;;;;;;-4.07;80.93;100630.09;5109519;28;20030;-86
2021/12/26 01:02:05;;;;;;;7.43;4.78;;;;;;;-4.04;80.94;100639.63;5109340;28;20031;-86
2021/12/26 01:04:31;;;;;;;6.55;4.35;;;;;;;-4.03;81.03;100642.22;5108350;28;20030;-86
2021/12/26 01:06:57;;;;;;;6.28;4.03;;;;;;;-4.03;80.74;100628.38;5092894;28;20442;-86
2021/12/26 01:09:27;;;;;;;7.07;4.30;;;;;;;-3.91;80.87;100638.81;5096405;27;20103;-85
2021/12/26 01:11:56;;;;;;;6.22;4.35;;;;;;;-3.89;81.08;100628.44;5109806;28;20027;-86
2021/12/26 01:14:27;;;;;;;6.10;3.97;;;;;;;-3.71;80.22;100644.13;5109034;28;20023;-86
2021/12/26 01:17:02;;;;;;;6.05;4.22;;;;;;;-3.63;79.70;100645.03;5107491;28;20114;-85
2021/12/26 01:19:34;;;;;;;7.10;4.68;;;;;;;-3.57;80.62;100639.81;5109066;28;20308;-86
2021/12/26 01:22:00;;;;;;;7.45;4.65;;;;;;;-3.42;80.06;100645.97;5109384;28;20050;-86
2021/12/26 01:24:25;;;;;;;7.78;4.60;;;;;;;-3.36;79.13;100646.84;5109372;28;20024;-86
2021/12/26 01:26:51;;;;;;;6.30;4.40;;;;;;;-3.33;78.52;100626.03;5100248;28;20551;-86
2021/12/26 01:29:16;;;;;;;8.57;4.95;;;;;;;-3.26;79.11;100637.31;5108871;28;20471;-86
2021/12/26 01:31:41;;;;;;;5.97;4.57;;;;;;;-3.21;78.61;100632.13;5109377;28;20022;-86
2021/12/26 01:34:07;;;;;;;5.13;4.05;;;;;;;-3.18;79.05;100627.78;5107987;28;20197;-86
2021/12/26 01:36:34;;;;;;;9.52;4.40;;;;;;;-3.14;78.19;100632.13;5096746;28;20115;-86
2021/12/26 01:39:02;;;;;;;7.30;4.40;;;;;;;-3.15;78.21;100627.78;5097414;28;20030;-86
2021/12/26 01:41:28;;;;;;;6.50;4.55;;;;;;;-3.11;77.10;100631.25;5108989;28;20020;-86
2021/12/26 01:43:58;;;;;;;11.10;4.80;;;;;;;-3.12;78.17;100630.41;5107496;28;20208;-86
2021/12/26 01:46:26;;;;;;;6.68;4.32;;;;;;;-3.13;78.47;100614.78;5096269;28;20044;-86
2021/12/26 01:49:22;;;;;;;7.63;4.25;;;;;;;-3.06;79.13;100622.59;5097193;28;20036;-86
2021/12/26 01:51:51;;;;;;;6.93;3.97;;;;;;;-3.06;78.09;100619.97;5075142;28;20050;-86
2021/12/26 01:54:30;;;;;;;6.95;4.50;;;;;;;-3.06;77.44;100622.59;5101962;28;20110;-85
2021/12/26 01:56:56;;;;;;;6.03;4.32;;;;;;;-3.03;77.87;100622.59;5106341;28;20035;-86
2021/12/26 01:59:21;;;;;;;6.97;4.63;;;;;;;-3.03;76.93;100613.91;5108287;28;20639;-85
2021/12/26 02:01:47;;;;;;;8.18;4.90;;;;;;;-3.03;77.15;100617.38;5108320;28;20030;-86
2021/12/26 02:04:13;;;;;;;8.95;5.18;;;;;;;-3.05;76.74;100611.31;5107109;28;20039;-85
2021/12/26 02:06:38;;;;;;;7.53;4.88;;;;;;;-3.04;77.34;100615.66;5105426;28;20066;-85
2021/12/26 02:09:07;;;;;;;7.15;4.63;;;;;;;-2.96;77.12;100622.63;5107330;28;20055;-86
2021/12/26 02:11:32;;;;;;;8.90;5.05;;;;;;;-2.95;76.58;100619.13;5106989;28;20106;-85
2021/12/26 02:13:57;;;;;;;8.05;4.80;;;;;;;-2.93;76.56;100620.00;5108293;28;20119;-85
2021/12/26 02:16:23;;;;;;;8.18;4.65;;;;;;;-2.94;76.45;100618.25;5100734;28;20032;-85
2021/12/26 02:18:48;;;;;;;6.65;4.32;;;;;;;-2.93;76.73;100617.38;5107659;28;20185;-85
2021/12/26 02:28:37;;;;;;;9.18;4.80;;;;;;;-2.93;75.92;100617.38;5107834;28;20051;-85
2021/12/26 02:31:04;;;;;;;9.13;4.65;;;;;;;-2.97;76.42;100597.41;5107266;28;20093;-85
2021/12/26 02:33:29;;;;;;;6.80;4.68;;;;;;;-2.96;76.89;100586.16;5103689;28;20036;-85
2021/12/26 02:35:54;;;;;;;5.72;4.88;;;;;;;-2.95;76.09;100593.09;5088416;28;20477;-85
2021/12/26 02:38:20;;;;;;;7.45;4.40;;;;;;;-2.91;76.29;100589.63;5085869;28;20520;-85
2021/12/26 02:40:47;;;;;;;7.80;4.60;;;;;;;-2.87;76.37;100594.84;5092587;28;20041;-85
2021/12/26 02:43:16;;;;;;;6.28;4.95;;;;;;;-2.88;76.21;100592.25;5107687;28;20028;-85
2021/12/26 02:45:41;;;;;;;8.38;4.82;;;;;;;-2.87;75.62;100586.16;5099005;28;20073;-85
2021/12/26 02:48:08;;;;;;;6.43;4.40;;;;;;;-2.88;76.31;100595.72;5091818;28;20041;-86
2021/12/26 02:50:34;;;;;;;7.63;4.38;;;;;;;-2.86;76.83;100595.69;5107951;28;20110;-85
2021/12/26 02:53:03;;;;;;;9.35;5.07;;;;;;;-2.91;76.86;100587.03;5107244;28;20111;-86
2021/12/26 02:55:29;;;;;;;8.57;4.78;;;;;;;-2.84;76.00;100589.63;5102973;28;20059;-85
2021/12/26 02:58:07;;;;;;;6.82;4.93;;;;;;;-2.83;76.82;100593.09;5106153;28;20501;-86
2021/12/26 03:00:37;;;;;;;8.43;4.93;;;;;;;-2.85;76.53;100598.28;5106278;28;20031;-85
2021/12/26 03:03:04;;;;;;;8.02;4.70;;;;;;;-2.86;76.26;100593.09;5105976;28;20038;-85
2021/12/26 03:05:32;;;;;;;7.30;5.03;;;;;;;-2.87;76.26;100596.56;5105188;28;20084;-85
2021/12/26 03:07:58;;;;;;;6.30;4.80;;;;;;;-2.93;76.86;100593.94;5107102;28;20067;-85
2021/12/26 03:10:26;;;;;;;9.05;5.40;;;;;;;-3.06;77.49;100583.53;5106587;28;20507;-85
2021/12/26 03:12:54;;;;;;;6.30;5.03;;;;;;;-3.04;77.77;100602.66;5107595;28;20054;-85
2021/12/26 03:15:19;;;;;;;6.72;4.50;;;;;;;-3.14;77.87;100595.66;5099984;28;20028;-85
2021/12/26 03:17:46;;;;;;;8.75;5.38;;;;;;;-3.18;77.59;100596.53;5105401;28;20133;-85
2021/12/26 03:20:14;;;;;;;6.90;4.85;;;;;;;-3.25;78.23;100589.59;5111133;28;20429;-85
2021/12/26 03:22:39;;;;;;;7.97;5.53;;;;;;;-3.40;78.27;100576.56;5111593;27;20031;-85
2021/12/26 03:25:10;;;;;;;7.50;4.88;;;;;;;-3.41;77.94;100585.25;5105741;28;20028;-85
2021/12/26 03:27:35;;;;;;;6.18;4.93;;;;;;;-3.47;78.34;100585.22;5125119;27;20493;-85
2021/12/26 03:30:01;;;;;;;7.97;4.88;;;;;;;-3.56;78.63;100579.13;5113450;27;20039;-85
2021/12/26 03:32:26;;;;;;;7.30;4.72;;;;;;;-3.62;78.73;100576.53;5098752;27;20028;-86
2021/12/26 03:34:51;;;;;;;8.00;5.03;;;;;;;-3.62;79.41;100578.25;5093750;28;20155;-85
2021/12/26 03:37:18;;;;;;;7.28;5.20;;;;;;;-3.70;79.23;100577.38;5110170;28;20060;-85
2021/12/26 03:39:44;;;;;;;7.45;4.68;;;;;;;-3.71;79.97;100579.09;5110670;28;20028;-85
2021/12/26 03:42:10;;;;;;;8.68;5.03;;;;;;;-3.82;79.66;100567.78;5110797;28;20080;-85
2021/12/26 03:44:35;;;;;;;7.60;5.13;;;;;;;-3.79;79.58;100584.28;5109693;27;20480;-85
2021/12/26 03:47:00;;;;;;;9.00;5.28;;;;;;;-3.82;79.81;100580.78;5108047;27;20130;-85
2021/12/26 03:49:27;;;;;;;8.80;4.88;;;;;;;-3.84;79.83;100577.34;5110675;28;20118;-85
2021/12/26 03:51:52;;;;;;;9.13;5.13;;;;;;;-3.91;79.90;100570.38;5110991;28;20416;-85
2021/12/26 03:54:17;;;;;;;8.93;5.47;;;;;;;-3.93;79.68;100566.88;5109068;28;20031;-85
2021/12/26 03:56:43;;;;;;;7.15;5.28;;;;;;;-3.90;79.90;100582.50;5098164;28;20055;-85
2021/12/26 03:59:08;;;;;;;8.55;5.20;;;;;;;-3.93;80.21;100578.16;5089592;28;20020;-85
2021/12/26 04:01:33;;;;;;;8.15;5.05;;;;;;;-3.96;79.85;100578.16;5102414;28;20032;-85
2021/12/26 04:03:59;;;;;;;7.88;5.28;;;;;;;-4.07;80.59;100565.09;5108694;28;20426;-85
2021/12/26 04:06:24;;;;;;;7.28;5.20;;;;;;;-4.07;80.97;100565.09;5099925;28;20024;-85
2021/12/26 04:08:50;;;;;;;7.85;5.43;;;;;;;-4.08;81.26;100570.28;5090252;28;20111;-85
2021/12/26 04:11:15;;;;;;;7.28;5.18;;;;;;;-4.07;81.38;100580.69;5089608;28;20441;-85
2021/12/26 04:13:40;;;;;;;8.57;5.50;;;;;;;-4.08;80.98;100568.56;5090672;28;20051;-85
2021/12/26 04:16:06;;;;;;;7.97;5.20;;;;;;;-4.08;80.66;100568.56;5101616;28;20099;-84
2021/12/26 04:18:31;;;;;;;8.80;5.50;;;;;;;-4.08;80.79;100568.56;5089493;28;20184;-85
2021/12/26 04:20:57;;;;;;;6.50;5.05;;;;;;;-4.09;80.54;100571.16;5089634;28;20035;-85
2021/12/26 04:23:22;;;;;;;6.57;4.95;;;;;;;-4.12;80.83;100569.41;5089676;28;20120;-85
2021/12/26 04:25:47;;;;;;;8.20;5.50;;;;;;;-4.13;79.83;100572.00;5094769;28;20032;-85
2021/12/26 04:28:17;;;;;;;9.27;5.20;;;;;;;-4.23;80.30;100559.81;5105151;28;20053;-85
2021/12/26 04:30:43;;;;;;;9.57;5.18;;;;;;;-4.25;80.70;100557.22;5098942;28;20024;-85
2021/12/26 04:33:09;;;;;;;6.90;4.90;;;;;;;-4.30;80.96;100546.81;5088164;28;20493;-85
2021/12/26 04:35:34;;;;;;;6.80;5.15;;;;;;;-4.28;80.71;100563.25;5092570;28;20062;-85
2021/12/26 04:37:59;;;;;;;6.18;4.95;;;;;;;-4.27;80.85;100558.94;5108233;28;20123;-85
2021/12/26 04:40:24;;;;;;;11.57;5.15;;;;;;;-4.28;81.31;100560.66;5110289;28;20403;-85
2021/12/26 04:42:50;;;;;;;8.80;5.15;;;;;;;-4.32;81.28;100552.84;5107438;28;20053;-85
2021/12/26 04:45:16;;;;;;;8.32;5.20;;;;;;;-4.31;81.31;100557.19;5107402;28;20047;-85
2021/12/26 04:47:43;;;;;;;7.53;4.88;;;;;;;-4.34;81.32;100550.25;5109592;28;20081;-85
2021/12/26 04:50:13;;;;;;;7.53;5.28;;;;;;;-4.31;81.55;100562.38;5109397;28;20020;-85
2021/12/26 04:52:41;;;;;;;9.45;5.28;;;;;;;-4.35;81.69;100553.69;5109848;28;20031;-85
2021/12/26 04:55:07;;;;;;;7.07;4.75;;;;;;;-4.38;81.81;100550.25;5107938;28;20361;-85
2021/12/26 04:57:32;;;;;;;7.65;5.05;;;;;;;-4.35;82.08;100561.50;5092884;28;20042;-85
2021/12/26 04:59:58;;;;;;;8.00;5.60;;;;;;;-4.44;82.01;100537.19;5108424;28;20024;-85
2021/12/26 05:02:23;;;;;;;6.68;4.90;;;;;;;-4.36;81.93;100551.09;5109537;28;20027;-85
2021/12/26 05:04:50;;;;;;;9.13;5.13;;;;;;;-4.36;82.49;100551.09;5109548;28;20149;-85
2021/12/26 05:07:15;;;;;;;8.05;5.43;;;;;;;-4.37;82.88;100551.97;5091027;28;20028;-85
2021/12/26 05:09:41;;;;;;;7.32;4.95;;;;;;;-4.43;82.25;100538.94;5089360;28;20032;-85
2021/12/26 05:12:07;;;;;;;8.95;5.15;;;;;;;-4.44;81.63;100532.88;5088202;28;20020;-85
2021/12/26 05:14:32;;;;;;;8.30;5.40;;;;;;;-4.42;81.72;100540.69;5098220;28;20027;-85
2021/12/26 05:16:58;;;;;;;8.98;5.55;;;;;;;-4.44;82.68;100532.00;5105328;28;20380;-85
2021/12/26 05:19:23;;;;;;;9.90;5.60;;;;;;;-4.52;82.33;100517.25;5108896;28;20019;-85
2021/12/26 05:21:48;;;;;;;8.05;5.05;;;;;;;-4.43;82.23;100533.72;5109070;28;20019;-85
2021/12/26 05:24:13;;;;;;;10.20;5.32;;;;;;;-4.46;82.76;100533.75;5108408;28;20031;-85
2021/12/26 05:26:39;;;;;;;6.93;5.18;;;;;;;-4.45;83.01;100532.88;5095299;28;20028;-85
2021/12/26 05:29:04;;;;;;;8.52;5.50;;;;;;;-4.47;82.84;100539.78;5088002;28;20066;-85
2021/12/26 05:31:29;;;;;;;7.55;5.55;;;;;;;-4.55;83.39;100530.22;5088940;28;20035;-85
2021/12/26 05:33:55;;;;;;;8.65;5.25;;;;;;;-4.51;82.95;100537.19;5094745;28;20085;-85
2021/12/26 05:36:20;;;;;;;7.35;5.32;;;;;;;-4.57;83.20;100518.09;5097378;28;20254;-85
2021/12/26 05:38:45;;;;;;;8.48;5.22;;;;;;;-4.57;83.36;100528.47;5088604;28;20070;-85
2021/12/26 05:41:11;;;;;;;7.45;5.30;;;;;;;-4.52;83.83;100539.75;5087037;28;20050;-85
2021/12/26 05:43:36;;;;;;;9.23;5.93;;;;;;;-4.54;83.46;100542.34;5089136;28;20070;-85
2021/12/26 05:46:01;;;;;;;11.25;5.78;;;;;;;-4.54;83.24;100536.28;5105825;28;20083;-85
2021/12/26 05:48:27;;;;;;;9.63;5.43;;;;;;;-4.59;83.99;100519.81;5108347;28;20031;-85
2021/12/26 05:50:52;;;;;;;10.57;5.22;;;;;;;-4.57;83.69;100526.75;5107631;28;20468;-85
2021/12/26 05:53:18;;;;;;;8.52;5.45;;;;;;;-4.55;83.66;100526.78;5102313;28;20040;-85
2021/12/26 05:55:44;;;;;;;8.40;5.63;;;;;;;-4.64;84.03;100501.63;5088617;28;20032;-86
2021/12/26 05:58:09;;;;;;;7.63;5.35;;;;;;;-4.53;84.06;100512.91;5093389;28;20028;-86
2021/12/26 06:00:35;;;;;;;9.18;5.72;;;;;;;-4.54;83.86;100511.19;5108583;28;20066;-88
2021/12/26 06:03:00;;;;;;;8.10;5.65;;;;;;;-4.59;83.63;100492.13;5107768;28;20080;-88
2021/12/26 06:05:25;;;;;;;9.23;5.70;;;;;;;-4.56;83.22;100494.72;5103949;28;20031;-86
2021/12/26 06:07:50;;;;;;;8.27;5.43;;;;;;;-4.54;83.80;100507.72;5088231;28;20377;-88
2021/12/26 06:10:16;;;;;;;10.07;5.40;;;;;;;-4.56;83.47;100506.81;5107485;28;20410;-85
2021/12/26 06:12:41;;;;;;;9.48;5.72;;;;;;;-4.62;83.36;100501.63;5108420;28;20027;-86
2021/12/26 06:15:07;;;;;;;9.80;5.50;;;;;;;-4.57;83.93;100503.38;5107264;28;20035;-90
2021/12/26 06:17:32;;;;;;;10.07;5.70;;;;;;;-4.66;83.91;100490.34;5108621;28;20540;-91
2021/12/26 06:19:58;;;;;;;7.05;4.93;;;;;;;-4.59;83.74;100506.84;5107384;28;20027;-87
2021/12/26 06:22:23;;;;;;;11.00;6.05;;;;;;;-4.60;84.27;100507.66;5108608;28;20015;-90
2021/12/26 06:24:48;;;;;;;9.95;5.30;;;;;;;-4.59;83.43;100512.91;5104529;28;20473;-90
2021/12/26 06:27:14;;;;;;;7.50;4.93;;;;;;;-4.61;83.96;100512.00;5096067;28;20052;-87
2021/12/26 06:29:39;;;;;;;8.73;5.28;;;;;;;-4.70;83.93;100504.16;5088144;28;20028;-90
2021/12/26 06:32:04;;;;;;;8.43;5.60;;;;;;;-4.66;84.16;100510.25;5085886;28;20036;-88
2021/12/26 06:34:30;;;;;;;8.82;5.70;;;;;;;-4.71;84.14;100502.44;5087872;28;20032;-90
2021/12/26 06:36:55;;;;;;;9.15;6.00;;;;;;;-4.68;84.41;100504.16;5102807;28;20449;-87
2021/12/26 06:39:21;;;;;;;8.98;6.22;;;;;;;-4.66;84.25;100507.66;5107776;28;20523;-87
2021/12/26 06:41:46;;;;;;;9.05;5.50;;;;;;;-4.66;84.54;100515.44;5106985;28;20036;-86
2021/12/26 06:44:11;;;;;;;9.57;5.72;;;;;;;-4.67;84.78;100511.97;5107263;28;20042;-87
2021/12/26 06:46:37;;;;;;;7.97;5.50;;;;;;;-4.71;84.44;100512.81;5092709;28;20044;-87
2021/12/26 06:49:03;;;;;;;9.70;5.88;;;;;;;-4.72;84.59;100505.91;5103523;28;20034;-87
2021/12/26 06:51:29;;;;;;;10.35;5.95;;;;;;;-4.65;84.57;100515.44;5108688;28;20042;-87
2021/12/26 06:53:54;;;;;;;8.18;6.10;;;;;;;-4.69;84.63;100503.31;5111354;28;20399;-88
2021/12/26 06:56:19;;;;;;;9.80;6.30;;;;;;;-4.62;85.03;100510.28;5109534;28;20038;-87
2021/12/26 06:58:44;;;;;;;10.00;6.50;;;;;;;-4.56;85.11;100515.47;5109073;27;20035;-89
2021/12/26 07:01:10;;;;;;;9.38;6.10;;;;;;;-4.57;84.28;100495.56;5110311;28;20035;-88
2021/12/26 07:03:36;;;;;;;9.82;5.95;;;;;;;-4.44;84.50;100506.91;5111882;28;20027;-89
2021/12/26 07:06:02;;;;;;;10.70;6.40;;;;;;;-4.37;84.26;100508.66;5108953;28;20042;-88
2021/12/26 07:08:27;;;;;;;11.23;5.70;;;;;;;-4.33;84.00;100507.81;5109450;28;20039;-87
2021/12/26 07:10:52;;;;;;;11.43;6.43;;;;;;;-4.35;84.28;100506.06;5111713;28;20495;-87
2021/12/26 07:13:18;;;;;;;9.02;6.05;;;;;;;-4.24;84.39;100508.72;5111202;28;20028;-87
2021/12/26 07:15:43;;;;;;;9.30;6.05;;;;;;;-4.22;83.49;100507.88;5104488;28;20031;-87
2021/12/26 07:18:08;;;;;;;10.50;6.32;;;;;;;-4.18;83.92;100509.63;5110363;28;20036;-87
2021/12/26 07:20:34;;;;;;;11.40;6.15;;;;;;;-4.16;84.01;100517.41;5111842;28;20027;-86
2021/12/26 07:22:59;;;;;;;9.75;5.97;;;;;;;-4.16;83.71;100510.47;5110681;28;20127;-87
2021/12/26 07:25:25;;;;;;;11.50;5.72;;;;;;;-4.18;84.05;100516.53;5107447;28;20093;-87
2021/12/26 07:27:50;;;;;;;9.77;6.30;;;;;;;-4.20;83.35;100510.47;5111164;28;20032;-86
2021/12/26 07:30:15;;;;;;;9.25;6.25;;;;;;;-4.21;83.78;100514.81;5110647;27;20307;-86
2021/12/26 07:32:41;;;;;;;10.25;7.03;;;;;;;-4.26;83.78;100501.78;5111190;28;20055;-88
2021/12/26 07:35:06;;;;;;;8.85;5.85;;;;;;;-4.20;83.88;100506.13;5108193;28;20096;-87
2021/12/26 07:37:32;;;;;;;10.35;6.47;;;;;;;-4.18;83.66;100495.72;5110476;28;20024;-88
2021/12/26 07:39:57;;;;;;;10.73;6.82;;;;;;;-4.19;84.06;100496.59;5111223;28;20058;-88
2021/12/26 07:42:22;;;;;;;11.88;6.82;;;;;;;-4.08;84.15;100513.97;5111537;28;20023;-87
2021/12/26 07:44:48;;;;;;;7.43;5.78;;;;;;;-4.12;83.85;100488.84;5108662;28;20073;-87
2021/12/26 07:47:13;;;;;;;11.05;6.65;;;;;;;-3.99;83.85;100504.47;5107862;28;20155;-88
2021/12/26 07:49:39;;;;;;;10.20;6.63;;;;;;;-3.95;83.79;100507.09;5110997;27;20472;-88
2021/12/26 07:52:12;;;;;;;13.15;6.30;;;;;;;-3.91;83.95;100507.97;5108487;28;20239;-88
2021/12/26 07:54:39;;;;;;;9.40;6.60;;;;;;;-3.88;83.61;100510.59;5110562;28;20452;-87
2021/12/26 07:57:06;;;;;;;10.65;6.25;;;;;;;-3.89;83.98;100511.41;5108949;28;20028;-88
2021/12/26 07:59:31;;;;;;;10.43;6.45;;;;;;;-3.88;83.58;100513.19;5110411;28;20016;-88
2021/12/26 08:01:57;;;;;;;9.38;5.80;;;;;;;-3.78;84.23;100514.94;5110744;28;20031;-83
2021/12/26 08:04:22;;;;;;;12.65;7.50;;;;;;;-3.71;83.82;100523.63;5110003;27;20039;-83
2021/12/26 08:06:47;;;;;;;9.93;5.85;;;;;;;-3.67;83.34;100528.81;5107195;28;20388;-85
2021/12/26 08:09:12;;;;;;;13.77;6.70;;;;;;;-3.67;82.86;100523.63;5110399;28;20031;-85
2021/12/26 08:11:38;;;;;;;9.20;6.50;;;;;;;-3.61;83.35;100526.22;5110274;28;20047;-85
2021/12/26 08:14:03;;;;;;;10.40;6.32;;;;;;;-3.56;83.25;100524.50;5110322;27;20406;-85
2021/12/26 08:16:29;;;;;;;11.00;6.78;;;;;;;-3.45;83.06;100518.44;5095927;28;20557;-85
2021/12/26 08:18:55;;;;;;;11.20;6.68;;;;;;;-3.39;83.49;100519.31;5094948;28;20036;-85
2021/12/26 08:21:20;;;;;;;12.07;6.47;;;;;;;-3.34;82.99;100511.53;5110212;28;20023;-86
2021/12/26 08:23:46;;;;;;;9.43;6.18;;;;;;;-3.30;83.20;100508.06;5106418;28;20311;-85
2021/12/26 08:26:12;;;;;;;11.07;6.70;;;;;;;-3.29;82.94;100505.44;5099460;28;20047;-86
2021/12/26 08:28:39;;;;;;;11.88;7.00;;;;;;;-3.19;82.61;100510.66;5101763;28;20027;-83
2021/12/26 08:31:05;;;;;;;13.25;7.30;;;;;;;-3.21;82.92;100504.59;5109354;28;20458;-83
2021/12/26 08:33:31;;;;;;;11.50;6.70;;;;;;;-3.11;82.62;100519.31;5109299;28;20066;-84
2021/12/26 08:35:56;;;;;;;12.90;6.78;;;;;;;-3.06;82.79;100515.84;5106319;28;20469;-84
2021/12/26 08:38:22;;;;;;;12.23;6.90;;;;;;;-3.01;82.55;100521.03;5109526;28;20027;-85
2021/12/26 08:40:49;;;;;;;12.00;6.72;;;;;;;-2.94;82.36;100511.50;5109977;27;20472;-84
2021/12/26 08:43:16;;;;;;;13.55;6.85;;;;;;;-2.89;81.98;100505.41;5109602;28;20028;-84
2021/12/26 08:45:41;;;;;;;11.52;7.03;;;;;;;-2.85;81.97;100511.47;5104314;28;20054;-83
2021/12/26 08:48:07;;;;;;;11.88;7.32;;;;;;;-2.81;82.16;100515.81;5108747;27;20584;-83
2021/12/26 08:50:32;;;;;;;10.98;6.50;;;;;;;-2.80;82.71;100507.13;5109792;28;20028;-83
2021/12/26 08:52:58;;;;;;;11.27;7.03;;;;;;;-2.76;82.33;100490.63;5109009;28;20020;-83
2021/12/26 08:55:24;;;;;;;13.05;6.70;;;;;;;-2.72;81.67;100494.94;5100859;28;20023;-84
2021/12/26 08:57:50;;;;;;;12.52;7.15;;;;;;;-2.64;81.74;100502.75;5109237;28;20482;-83
2021/12/26 09:00:16;;;;;;;14.35;7.10;;;;;;;-2.55;81.69;100507.94;5106097;28;20365;-83
2021/12/26 09:02:42;;;;;;;11.35;7.28;;;;;;;-2.50;82.12;100508.81;5108679;28;20024;-83
2021/12/26 09:05:07;;;;;;;10.57;6.93;;;;;;;-2.50;82.12;100501.00;5107633;28;20035;-83
2021/12/26 09:07:33;;;;;;;10.80;7.03;;;;;;;-2.35;81.85;100519.16;5109098;28;20427;-84
2021/12/26 09:09:59;;;;;;;10.80;7.07;;;;;;;-2.34;81.68;100496.56;5108446;28;20019;-84
2021/12/26 09:12:24;;;;;;;12.15;7.50;;;;;;;-2.21;81.91;100493.06;5108879;28;20023;-83
2021/12/26 09:14:50;;;;;;;11.93;7.00;;;;;;;-2.10;81.55;100499.06;5104435;28;20020;-84
2021/12/26 09:17:15;;;;;;;12.38;7.13;;;;;;;-2.09;80.90;100493.00;5099110;28;20072;-84
2021/12/26 09:19:41;;;;;;;12.90;7.38;;;;;;;-2.02;81.23;100493.81;5108643;28;20399;-85
2021/12/26 09:22:09;;;;;;;14.80;7.32;;;;;;;-2.06;81.08;100487.75;5107738;28;20019;-81
2021/12/26 09:24:36;;;;;;;11.85;7.78;;;;;;;-2.06;81.10;100482.53;5103850;28;20039;-84
2021/12/26 09:27:01;;;;;;;13.18;7.35;;;;;;;-1.85;81.70;100512.84;5094351;28;20036;-82
2021/12/26 09:29:27;;;;;;;11.52;7.13;;;;;;;-1.82;81.36;100497.19;5108538;28;20024;-82
2021/12/26 09:31:53;;;;;;;12.70;7.13;;;;;;;-1.73;81.03;100498.00;5107951;28;20032;-85
2021/12/26 09:34:20;;;;;;;11.77;7.47;;;;;;;-1.63;81.10;100504.91;5107036;28;20433;-87
2021/12/26 09:36:45;;;;;;;11.30;7.32;;;;;;;-1.63;80.99;100503.19;5105179;28;20035;-86
2021/12/26 09:39:11;;;;;;;11.73;7.28;;;;;;;-1.53;80.60;100498.75;5106845;28;20385;-86
2021/12/26 09:41:37;;;;;;;12.10;6.97;;;;;;;-1.52;80.32;100497.88;5108486;28;20027;-85
2021/12/26 09:44:03;;;;;;;11.00;7.35;;;;;;;-1.51;80.08;100490.03;5100708;28;20539;-82
2021/12/26 09:46:31;;;;;;;12.00;7.45;;;;;;;-1.39;80.05;100515.16;5105698;28;20127;-81
2021/12/26 09:48:57;;;;;;;12.18;6.60;;;;;;;-1.37;80.64;100512.56;5107842;28;20028;-81
2021/12/26 09:51:23;;;;;;;12.18;7.50;;;;;;;-1.47;80.59;100487.41;5107527;28;20035;-82
2021/12/26 09:53:48;;;;;;;12.15;7.28;;;;;;;-1.33;80.58;100507.31;5108520;28;20419;-82
2021/12/26 09:56:14;;;;;;;13.05;7.38;;;;;;;-1.28;80.61;100502.03;5099793;28;20027;-84
2021/12/26 09:58:53;;;;;;;14.18;7.95;;;;;;;-1.24;80.57;100495.06;5098467;28;20104;-92
2021/12/26 10:01:28;;;;;;;18.08;8.15;;;;;;;-1.23;80.54;100492.44;5106739;28;20561;-93
2021/12/26 10:03:54;;;;;;;12.20;7.80;;;;;;;-1.23;80.41;100492.44;5105425;28;20047;-91
2021/12/26 10:06:19;;;;;;;11.52;7.40;;;;;;;-1.20;80.85;100491.53;5102985;28;20103;-91
2021/12/26 10:08:57;;;;;;;12.32;7.57;;;;;;;-1.21;80.50;100475.00;5107288;28;20055;-90
2021/12/26 10:11:29;;;;;;;12.68;8.45;;;;;;;-1.10;80.89;100483.59;5108717;28;20493;-88
2021/12/26 10:14:00;;;;;;;13.20;7.40;;;;;;;-1.09;80.31;100459.19;5106478;28;20495;-85
2021/12/26 10:16:29;;;;;;;13.50;8.00;;;;;;;-1.05;80.35;100460.03;5103337;28;20019;-88
2021/12/26 10:18:56;;;;;;;12.65;8.90;;;;;;;-0.97;80.30;100463.44;5107938;28;20036;-84
2021/12/26 10:21:25;;;;;;;14.35;8.15;;;;;;;-0.88;80.23;100462.50;5105525;28;20289;-84
2021/12/26 10:23:52;;;;;;;15.15;8.50;;;;;;;-0.85;80.21;100465.09;5102675;28;20036;-84
2021/12/26 10:26:24;;;;;;;11.80;8.00;;;;;;;-0.81;79.98;100461.56;5094110;28;20059;-81
2021/12/26 10:29:07;;;;;;;12.52;7.95;;;;;;;-0.77;80.44;100463.25;5112105;28;20114;-84
2021/12/26 10:31:33;;;;;;;12.80;7.80;;;;;;;-0.84;80.56;100452.00;5111718;28;20103;-84
2021/12/26 10:33:58;;;;;;;12.57;7.88;;;;;;;-0.79;79.88;100455.44;5111769;28;20148;-83
2021/12/26 10:36:26;;;;;;;16.08;8.85;;;;;;;-0.73;80.28;100451.88;5101810;28;20051;-84
2021/12/26 10:39:12;;;;;;;12.38;8.38;;;;;;;-0.66;80.75;100455.31;5108207;28;20030;-84
2021/12/26 10:41:42;;;;;;;12.48;8.15;;;;;;;-0.63;80.30;100453.50;5110811;28;20085;-84
2021/12/26 10:44:21;;;;;;;13.05;8.70;;;;;;;-0.65;80.44;100443.97;5111002;28;20028;-83
2021/12/26 10:46:51;;;;;;;14.68;9.23;;;;;;;-0.61;80.58;100448.28;5109236;28;20127;-82
2021/12/26 10:49:25;;;;;;;14.50;9.18;;;;;;;-0.58;80.75;100451.72;5111316;28;20116;-84
2021/12/26 10:51:51;;;;;;;13.00;8.65;;;;;;;-0.56;80.80;100436.00;5111957;28;20076;-84
2021/12/26 10:54:20;;;;;;;11.85;8.77;;;;;;;-0.58;80.66;100441.28;5111274;28;20019;-84
2021/12/26 10:57:04;;;;;;;18.00;9.48;;;;;;;-0.65;80.84;100425.66;5109024;27;20035;-82
2021/12/26 10:59:29;;;;;;;15.20;9.43;;;;;;;-0.63;81.13;100429.13;5103038;28;20084;-85
2021/12/26 11:01:56;;;;;;;18.10;10.63;;;;;;;-0.61;81.66;100416.91;5111248;28;20156;-85
2021/12/26 11:04:24;;;;;;;17.85;9.80;;;;;;;-0.49;81.35;100411.53;5110162;28;20031;-88
2021/12/26 11:07:05;;;;;;;15.63;9.90;;;;;;;-0.43;81.46;100418.44;5106464;28;20464;-86
2021/12/26 11:09:31;;;;;;;15.73;9.77;;;;;;;-0.32;81.75;100422.63;5111891;28;20034;-83
2021/12/26 11:12:05;;;;;;;17.15;9.65;;;;;;;-0.30;80.95;100418.22;5110952;28;20031;-89
2021/12/26 11:14:30;;;;;;;14.32;9.23;;;;;;;-0.42;81.43;100397.47;5110277;28;20030;-86
2021/12/26 11:16:55;;;;;;;16.60;9.77;;;;;;;-0.24;81.62;100422.53;5108925;28;20110;-93
2021/12/26 11:19:41;;;;;;;14.93;10.07;;;;;;;-0.20;81.62;100425.97;5111041;28;20054;-84
2021/12/26 11:22:07;;;;;;;14.93;9.85;;;;;;;-0.22;81.32;100423.38;5100539;28;20480;-87
2021/12/26 11:24:33;;;;;;;16.15;9.75;;;;;;;-0.22;81.76;100414.66;5111173;28;20035;-84
2021/12/26 11:26:59;;;;;;;15.00;9.77;;;;;;;-0.20;81.63;100420.75;5102537;27;20027;-88